createdAt,value
2018-08-09T00:00:49.131Z,1007.4
2018-08-09T00:01:51.220Z,1007.4
2018-08-09T00:02:53.326Z,1007.4
2018-08-09T00:03:55.417Z,1007.5
2018-08-09T00:04:57.516Z,1007.5
2018-08-09T00:05:59.910Z,1007.5
2018-08-09T00:07:02.285Z,1007.5
2018-08-09T00:08:04.677Z,1007.5
2018-08-09T00:09:06.785Z,1007.6
2018-08-09T00:10:09.173Z,1007.6
2018-08-09T00:11:11.263Z,1007.6
2018-08-09T00:12:13.368Z,1007.6
2018-08-09T00:13:15.461Z,1007.6
2018-08-09T00:14:17.554Z,1007.6
2018-08-09T00:15:19.665Z,1007.6
2018-08-09T00:16:21.752Z,1007.7
2018-08-09T00:17:24.141Z,1007.6
2018-08-09T00:18:26.537Z,1007.7
2018-08-09T00:19:28.641Z,1007.7
2018-08-09T00:20:30.736Z,1007.7
2018-08-09T00:21:33.131Z,1007.7
2018-08-09T00:22:35.226Z,1007.7
2018-08-09T00:23:37.913Z,1007.7
2018-08-09T00:24:40.413Z,1007.7
2018-08-09T00:25:42.804Z,1007.7
2018-08-09T00:26:45.192Z,1007.7
2018-08-09T00:27:47.300Z,1007.7
2018-08-09T00:28:49.395Z,1007.7
2018-08-09T00:29:51.487Z,1007.7
2018-08-09T00:30:53.596Z,1007.7
2018-08-09T00:31:56.066Z,1007.7
2018-08-09T00:32:58.174Z,1007.8
2018-08-09T00:34:00.267Z,1007.8
2018-08-09T00:35:02.377Z,1007.8
2018-08-09T00:36:04.753Z,1007.8
2018-08-09T00:37:06.863Z,1007.8
2018-08-09T00:38:08.958Z,1007.7
2018-08-09T00:39:11.045Z,1007.8
2018-08-09T00:40:13.156Z,1007.8
2018-08-09T00:41:15.528Z,1007.8
2018-08-09T00:42:17.626Z,1007.8
2018-08-09T00:43:19.717Z,1007.8
2018-08-09T00:44:21.824Z,1007.7
2018-08-09T00:45:23.913Z,1007.7
2018-08-09T00:46:26.018Z,1007.7
2018-08-09T00:47:28.122Z,1007.7
2018-08-09T00:48:30.593Z,1007.8
2018-08-09T00:49:33.016Z,1007.8
2018-08-09T00:50:35.108Z,1007.8
2018-08-09T00:51:37.202Z,1007.8
2018-08-09T00:52:39.296Z,1007.8
2018-08-09T00:53:41.403Z,1007.8
2018-08-09T00:54:43.496Z,1007.8
2018-08-09T00:55:45.605Z,1007.7
2018-08-09T00:56:48.015Z,1007.7
2018-08-09T00:57:50.101Z,1007.7
2018-08-09T00:58:52.197Z,1007.7
2018-08-09T00:59:54.304Z,1007.7
2018-08-09T01:00:56.781Z,1007.7
2018-08-09T01:01:58.883Z,1007.7
2018-08-09T01:03:00.989Z,1007.7
2018-08-09T01:04:03.078Z,1007.7
2018-08-09T01:05:05.187Z,1007.8
2018-08-09T01:06:07.959Z,1007.7
2018-08-09T01:07:10.057Z,1007.7
2018-08-09T01:08:12.146Z,1007.7
2018-08-09T01:09:14.244Z,1007.7
2018-08-09T01:10:16.350Z,1007.7
2018-08-09T01:11:18.455Z,1007.7
2018-08-09T01:12:20.541Z,1007.7
2018-08-09T01:13:22.653Z,1007.8
2018-08-09T01:14:24.737Z,1007.8
2018-08-09T01:15:26.831Z,1007.8
2018-08-09T01:16:29.217Z,1007.8
2018-08-09T01:17:31.326Z,1007.7
2018-08-09T01:18:33.414Z,1007.8
2018-08-09T01:19:35.521Z,1007.7
2018-08-09T01:20:37.628Z,1007.7
2018-08-09T01:21:39.701Z,1007.7
2018-08-09T01:22:41.808Z,1007.7
2018-08-09T01:23:43.906Z,1007.7
2018-08-09T01:24:45.994Z,1007.7
2018-08-09T01:25:48.091Z,1007.7
2018-08-09T01:26:50.194Z,1007.7
2018-08-09T01:27:52.577Z,1007.6
2018-08-09T01:28:54.681Z,1007.6
2018-08-09T01:29:56.779Z,1007.7
2018-08-09T01:30:58.864Z,1007.6
2018-08-09T01:32:00.964Z,1007.6
2018-08-09T01:33:03.678Z,1007.7
2018-08-09T01:34:05.763Z,1007.7
2018-08-09T01:35:07.872Z,1007.7
2018-08-09T01:36:10.362Z,1007.7
2018-08-09T01:37:12.450Z,1007.7
2018-08-09T01:38:15.140Z,1007.7
2018-08-09T01:39:17.229Z,1007.7
2018-08-09T01:40:19.326Z,1007.7
2018-08-09T01:41:21.419Z,1007.7
2018-08-09T01:42:23.814Z,1007.7
2018-08-09T01:43:26.191Z,1007.7
2018-08-09T01:44:28.287Z,1007.8
2018-08-09T01:45:30.391Z,1007.7
2018-08-09T01:46:32.486Z,1007.7
2018-08-09T01:47:34.571Z,1007.8
2018-08-09T01:48:36.717Z,1007.7
2018-08-09T01:49:39.194Z,1007.7
2018-08-09T01:50:41.593Z,1007.7
2018-08-09T01:51:43.682Z,1007.7
2018-08-09T01:52:45.789Z,1007.7
2018-08-09T01:53:47.892Z,1007.7
2018-08-09T01:54:49.973Z,1007.6
2018-08-09T01:55:52.084Z,1007.6
2018-08-09T01:56:54.785Z,1007.6
2018-08-09T01:57:56.874Z,1007.6
2018-08-09T01:58:59.369Z,1007.6
2018-08-09T02:00:01.759Z,1007.6
2018-08-09T02:01:04.236Z,1007.7
2018-08-09T02:02:06.346Z,1007.7
2018-08-09T02:03:08.821Z,1007.7
2018-08-09T02:04:10.905Z,1007.8
2018-08-09T02:05:13.004Z,1007.8
2018-08-09T02:06:15.400Z,1007.8
2018-08-09T02:07:17.482Z,1007.8
2018-08-09T02:08:19.579Z,1007.8
2018-08-09T02:09:21.682Z,1007.8
2018-08-09T02:10:23.771Z,1007.8
2018-08-09T02:11:25.875Z,1007.9
2018-08-09T02:12:27.969Z,1007.9
2018-08-09T02:13:30.058Z,1007.8
2018-08-09T02:14:32.149Z,1007.9
2018-08-09T02:15:34.253Z,1007.9
2018-08-09T02:16:36.340Z,1007.9
2018-08-09T02:17:38.820Z,1007.9
2018-08-09T02:18:40.926Z,1007.9
2018-08-09T02:19:43.012Z,1007.9
2018-08-09T02:20:45.405Z,1007.9
2018-08-09T02:21:47.502Z,1007.9
2018-08-09T02:22:49.905Z,1007.9
2018-08-09T02:23:52.275Z,1007.9
2018-08-09T02:24:54.377Z,1008
2018-08-09T02:25:56.479Z,1008
2018-08-09T02:26:58.579Z,1008
2018-08-09T02:28:00.975Z,1008
2018-08-09T02:29:03.081Z,1007.9
2018-08-09T02:30:05.478Z,1008
2018-08-09T02:31:07.577Z,1008
2018-08-09T02:32:10.267Z,1007.9
2018-08-09T02:33:12.376Z,1008
2018-08-09T02:34:14.777Z,1008
2018-08-09T02:35:16.882Z,1007.9
2018-08-09T02:36:18.982Z,1007.9
2018-08-09T02:37:21.084Z,1007.9
2018-08-09T02:38:24.249Z,1007.9
2018-08-09T02:39:26.351Z,1007.9
2018-08-09T02:40:28.825Z,1007.9
2018-08-09T02:41:30.928Z,1007.9
2018-08-09T02:42:33.031Z,1007.9
2018-08-09T02:43:35.123Z,1007.9
2018-08-09T02:44:37.227Z,1007.9
2018-08-09T02:45:39.607Z,1008
2018-08-09T02:46:41.726Z,1008
2018-08-09T02:47:43.799Z,1008
2018-08-09T02:48:46.197Z,1008
2018-08-09T02:49:48.577Z,1007.9
2018-08-09T02:50:50.677Z,1008
2018-08-09T02:51:52.788Z,1008
2018-08-09T02:52:55.159Z,1008
2018-08-09T02:53:57.264Z,1008
2018-08-09T02:55:00.332Z,1008
2018-08-09T02:56:02.750Z,1008
2018-08-09T02:57:04.837Z,1008
2018-08-09T02:58:06.942Z,1008
2018-08-09T02:59:09.033Z,1008
2018-08-09T03:00:11.823Z,1008
2018-08-09T03:01:13.938Z,1007.9
2018-08-09T03:02:16.325Z,1008
2018-08-09T03:03:18.428Z,1008
2018-08-09T03:04:20.532Z,1008
2018-08-09T03:05:22.627Z,1007.9
2018-08-09T03:06:24.722Z,1008
2018-08-09T03:07:26.823Z,1008
2018-08-09T03:08:28.923Z,1008
2018-08-09T03:09:31.024Z,1007.9
2018-08-09T03:10:33.143Z,1008
2018-08-09T03:11:35.243Z,1008
2018-08-09T03:12:37.336Z,1008
2018-08-09T03:13:39.446Z,1008
2018-08-09T03:14:41.535Z,1008.1
2018-08-09T03:15:43.625Z,1008
2018-08-09T03:16:45.733Z,1008
2018-08-09T03:17:48.126Z,1008.1
2018-08-09T03:18:50.604Z,1008.1
2018-08-09T03:19:52.699Z,1008.1
2018-08-09T03:20:54.799Z,1008.2
2018-08-09T03:21:57.184Z,1008.2
2018-08-09T03:22:59.294Z,1008.2
2018-08-09T03:24:01.391Z,1008.2
2018-08-09T03:25:03.482Z,1008.2
2018-08-09T03:26:05.989Z,1008.3
2018-08-09T03:27:08.362Z,1008.3
2018-08-09T03:28:10.458Z,1008.3
2018-08-09T03:29:12.546Z,1008.3
2018-08-09T03:30:14.658Z,1008.3
2018-08-09T03:31:16.748Z,1008.3
2018-08-09T03:32:19.238Z,1008.3
2018-08-09T03:33:21.628Z,1008.3
2018-08-09T03:34:23.705Z,1008.3
2018-08-09T03:35:26.198Z,1008.3
2018-08-09T03:36:28.293Z,1008.4
2018-08-09T03:37:30.381Z,1008.4
2018-08-09T03:38:32.479Z,1008.3
2018-08-09T03:39:35.255Z,1008.4
2018-08-09T03:40:37.349Z,1008.4
2018-08-09T03:41:39.827Z,1008.4
2018-08-09T03:42:41.920Z,1008.4
2018-08-09T03:43:44.028Z,1008.4
2018-08-09T03:44:46.124Z,1008.4
2018-08-09T03:45:48.213Z,1008.4
2018-08-09T03:46:50.323Z,1008.4
2018-08-09T03:47:52.409Z,1008.4
2018-08-09T03:48:54.503Z,1008.4
2018-08-09T03:49:56.893Z,1008.4
2018-08-09T03:50:58.970Z,1008.4
2018-08-09T03:52:01.073Z,1008.4
2018-08-09T03:53:03.561Z,1008.4
2018-08-09T03:54:05.960Z,1008.4
2018-08-09T03:55:08.041Z,1008.4
2018-08-09T03:56:10.142Z,1008.4
2018-08-09T03:57:12.233Z,1008.4
2018-08-09T03:58:14.748Z,1008.4
2018-08-09T03:59:16.792Z,1008.5
2018-08-09T04:00:18.879Z,1008.4
2018-08-09T04:01:21.011Z,1008.4
2018-08-09T04:02:23.063Z,1008.5
2018-08-09T04:03:25.171Z,1008.5
2018-08-09T04:04:27.257Z,1008.5
2018-08-09T04:05:29.357Z,1008.5
2018-08-09T04:06:31.462Z,1008.5
2018-08-09T04:07:33.543Z,1008.5
2018-08-09T04:08:35.644Z,1008.5
2018-08-09T04:09:38.126Z,1008.5
2018-08-09T04:10:40.224Z,1008.5
2018-08-09T04:11:42.679Z,1008.5
2018-08-09T04:12:45.103Z,1008.5
2018-08-09T04:13:47.193Z,1008.4
2018-08-09T04:14:49.582Z,1008.5
2018-08-09T04:15:51.677Z,1008.5
2018-08-09T04:16:54.056Z,1008.5
2018-08-09T04:17:56.550Z,1008.5
2018-08-09T04:18:58.632Z,1008.5
2018-08-09T04:20:00.741Z,1008.5
2018-08-09T04:21:02.832Z,1008.4
2018-08-09T04:22:05.313Z,1008.4
2018-08-09T04:23:07.701Z,1008.4
2018-08-09T04:24:09.787Z,1008.4
2018-08-09T04:25:11.887Z,1008.4
2018-08-09T04:26:13.982Z,1008.4
2018-08-09T04:27:16.082Z,1008.3
2018-08-09T04:28:18.170Z,1008.3
2018-08-09T04:29:20.272Z,1008.3
2018-08-09T04:30:22.367Z,1008.3
2018-08-09T04:31:24.454Z,1008.3
2018-08-09T04:32:26.563Z,1008.3
2018-08-09T04:33:28.647Z,1008.3
2018-08-09T04:34:30.744Z,1008.3
2018-08-09T04:35:32.843Z,1008.3
2018-08-09T04:36:34.942Z,1008.3
2018-08-09T04:37:37.315Z,1008.3
2018-08-09T04:38:39.806Z,1008.3
2018-08-09T04:39:42.223Z,1008.4
2018-08-09T04:40:44.305Z,1008.4
2018-08-09T04:41:46.412Z,1008.5
2018-08-09T04:42:48.507Z,1008.5
2018-08-09T04:43:50.594Z,1008.5
2018-08-09T04:44:52.689Z,1008.5
2018-08-09T04:45:55.092Z,1008.5
2018-08-09T04:46:57.181Z,1008.5
2018-08-09T04:47:59.281Z,1008.5
2018-08-09T04:49:01.377Z,1008.5
2018-08-09T04:50:03.465Z,1008.5
2018-08-09T04:51:05.563Z,1008.5
2018-08-09T04:52:07.663Z,1008.5
2018-08-09T04:53:09.791Z,1008.5
2018-08-09T04:54:12.142Z,1008.5
2018-08-09T04:55:14.240Z,1008.5
2018-08-09T04:56:16.337Z,1008.5
2018-08-09T04:57:18.420Z,1008.5
2018-08-09T04:58:20.879Z,1008.5
2018-08-09T04:59:23.387Z,1008.5
2018-08-09T05:00:25.492Z,1008.6
2018-08-09T05:01:27.580Z,1008.5
2018-08-09T05:02:29.679Z,1008.5
2018-08-09T05:03:32.061Z,1008.6
2018-08-09T05:04:34.150Z,1008.5
2018-08-09T05:05:36.260Z,1008.5
2018-08-09T05:06:38.344Z,1008.5
2018-08-09T05:07:40.445Z,1008.6
2018-08-09T05:08:42.534Z,1008.5
2018-08-09T05:09:44.636Z,1008.6
2018-08-09T05:10:47.012Z,1008.6
2018-08-09T05:11:49.117Z,1008.5
2018-08-09T05:12:51.613Z,1008.5
2018-08-09T05:13:53.979Z,1008.5
2018-08-09T05:14:56.376Z,1008.5
2018-08-09T05:15:58.560Z,1008.5
2018-08-09T05:17:00.561Z,1008.5
2018-08-09T05:18:03.434Z,1008.5
2018-08-09T05:19:05.922Z,1008.5
2018-08-09T05:20:08.015Z,1008.5
2018-08-09T05:21:10.124Z,1008.5
2018-08-09T05:22:12.513Z,1008.5
2018-08-09T05:23:14.746Z,1008.5
2018-08-09T05:24:16.699Z,1008.5
2018-08-09T05:25:18.803Z,1008.5
2018-08-09T05:26:20.894Z,1008.5
2018-08-09T05:27:22.992Z,1008.5
2018-08-09T05:28:25.092Z,1008.5
2018-08-09T05:29:27.467Z,1008.5
2018-08-09T05:30:29.577Z,1008.5
2018-08-09T05:31:31.667Z,1008.5
2018-08-09T05:32:33.761Z,1008.5
2018-08-09T05:33:35.843Z,1008.5
2018-08-09T05:34:37.948Z,1008.5
2018-08-09T05:35:40.040Z,1008.5
2018-08-09T05:36:42.431Z,1008.5
2018-08-09T05:37:44.826Z,1008.5
2018-08-09T05:38:47.295Z,1008.4
2018-08-09T05:39:49.690Z,1008.5
2018-08-09T05:40:51.788Z,1008.4
2018-08-09T05:41:53.892Z,1008.4
2018-08-09T05:42:55.982Z,1008.5
2018-08-09T05:43:58.760Z,1008.5
2018-08-09T05:45:00.851Z,1008.4
2018-08-09T05:46:02.943Z,1008.5
2018-08-09T05:47:05.053Z,1008.5
2018-08-09T05:48:07.144Z,1008.5
2018-08-09T05:49:09.235Z,1008.5
2018-08-09T05:50:11.341Z,1008.5
2018-08-09T05:51:13.440Z,1008.5
2018-08-09T05:52:15.529Z,1008.5
2018-08-09T05:53:17.698Z,1008.5
2018-08-09T05:54:20.114Z,1008.5
2018-08-09T05:55:22.211Z,1008.5
2018-08-09T05:56:24.710Z,1008.5
2018-08-09T05:57:26.809Z,1008.5
2018-08-09T05:58:29.004Z,1008.5
2018-08-09T05:59:31.442Z,1008.6
2018-08-09T06:00:33.534Z,1008.6
2018-08-09T06:01:35.634Z,1008.6
2018-08-09T06:02:37.737Z,1008.7
2018-08-09T06:03:39.825Z,1008.6
2018-08-09T06:04:41.931Z,1008.6
2018-08-09T06:05:44.103Z,1008.7
2018-08-09T06:06:46.619Z,1008.6
2018-08-09T06:07:48.993Z,1008.6
2018-08-09T06:08:51.097Z,1008.6
2018-08-09T06:09:53.196Z,1008.7
2018-08-09T06:10:55.285Z,1008.7
2018-08-09T06:11:57.383Z,1008.7
2018-08-09T06:12:59.495Z,1008.7
2018-08-09T06:14:01.982Z,1008.8
2018-08-09T06:15:04.087Z,1008.8
2018-08-09T06:16:06.466Z,1008.8
2018-08-09T06:17:08.573Z,1008.7
2018-08-09T06:18:10.670Z,1008.7
2018-08-09T06:19:12.765Z,1008.7
2018-08-09T06:20:14.878Z,1008.7
2018-08-09T06:21:16.969Z,1008.7
2018-08-09T06:22:19.069Z,1008.7
2018-08-09T06:23:21.463Z,1008.7
2018-08-09T06:24:23.558Z,1008.7
2018-08-09T06:25:25.651Z,1008.7
2018-08-09T06:26:27.896Z,1008.7
2018-08-09T06:27:30.325Z,1008.7
2018-08-09T06:28:32.430Z,1008.7
2018-08-09T06:29:34.845Z,1008.7
2018-08-09T06:30:36.934Z,1008.7
2018-08-09T06:31:39.025Z,1008.7
2018-08-09T06:32:41.138Z,1008.7
2018-08-09T06:33:43.908Z,1008.7
2018-08-09T06:34:46.001Z,1008.7
2018-08-09T06:35:48.106Z,1008.7
2018-08-09T06:36:50.196Z,1008.7
2018-08-09T06:37:52.305Z,1008.7
2018-08-09T06:38:54.408Z,1008.7
2018-08-09T06:39:56.516Z,1008.7
2018-08-09T06:40:58.607Z,1008.7
2018-08-09T06:42:01.009Z,1008.7
2018-08-09T06:43:03.424Z,1008.7
2018-08-09T06:44:05.806Z,1008.7
2018-08-09T06:45:08.213Z,1008.7
2018-08-09T06:46:10.590Z,1008.7
2018-08-09T06:47:12.692Z,1008.7
2018-08-09T06:48:14.788Z,1008.7
2018-08-09T06:49:16.894Z,1008.7
2018-08-09T06:50:18.996Z,1008.6
2018-08-09T06:51:21.095Z,1008.6
2018-08-09T06:52:23.477Z,1008.7
2018-08-09T06:53:25.585Z,1008.6
2018-08-09T06:54:27.673Z,1008.6
2018-08-09T06:55:29.779Z,1008.7
2018-08-09T06:56:31.885Z,1008.6
2018-08-09T06:57:33.985Z,1008.6
2018-08-09T06:58:36.466Z,1008.7
2018-08-09T06:59:38.580Z,1008.7
2018-08-09T07:00:40.675Z,1008.7
2018-08-09T07:01:42.778Z,1008.7
2018-08-09T07:02:45.174Z,1008.7
2018-08-09T07:03:47.278Z,1008.7
2018-08-09T07:04:49.379Z,1008.8
2018-08-09T07:05:51.496Z,1008.7
2018-08-09T07:06:53.646Z,1008.8
2018-08-09T07:07:55.692Z,1008.7
2018-08-09T07:08:57.802Z,1008.7
2018-08-09T07:09:59.937Z,1008.7
2018-08-09T07:11:02.051Z,1008.7
2018-08-09T07:12:04.151Z,1008.7
2018-08-09T07:13:06.268Z,1008.7
2018-08-09T07:14:08.353Z,1008.8
2018-08-09T07:15:10.461Z,1008.8
2018-08-09T07:16:12.951Z,1008.8
2018-08-09T07:17:15.044Z,1008.7
2018-08-09T07:18:17.771Z,1008.7
2018-08-09T07:19:19.860Z,1008.7
2018-08-09T07:20:22.375Z,1008.7
2018-08-09T07:21:24.445Z,1008.7
2018-08-09T07:22:26.843Z,1008.7
2018-08-09T07:23:29.620Z,1008.8
2018-08-09T07:24:31.726Z,1008.7
2018-08-09T07:25:33.836Z,1008.7
2018-08-09T07:26:35.925Z,1008.7
2018-08-09T07:27:38.036Z,1008.6
2018-08-09T07:28:40.140Z,1008.6
2018-08-09T07:29:42.244Z,1008.6
2018-08-09T07:30:44.347Z,1008.6
2018-08-09T07:31:46.441Z,1008.6
2018-08-09T07:32:48.945Z,1008.6
2018-08-09T07:33:51.153Z,1008.6
2018-08-09T07:34:53.644Z,1008.6
2018-08-09T07:35:56.047Z,1008.6
2018-08-09T07:36:58.152Z,1008.5
2018-08-09T07:38:00.258Z,1008.6
2018-08-09T07:39:02.375Z,1008.5
2018-08-09T07:40:04.867Z,1008.5
2018-08-09T07:41:06.967Z,1008.5
2018-08-09T07:42:09.079Z,1008.5
2018-08-09T07:43:11.165Z,1008.5
2018-08-09T07:44:13.273Z,1008.5
2018-08-09T07:45:15.397Z,1008.5
2018-08-09T07:46:17.506Z,1008.5
2018-08-09T07:47:19.600Z,1008.5
2018-08-09T07:48:22.059Z,1008.4
2018-08-09T07:49:24.111Z,1008.4
2018-08-09T07:50:26.511Z,1008.4
2018-08-09T07:51:28.920Z,1008.4
2018-08-09T07:52:31.012Z,1008.4
2018-08-09T07:53:33.118Z,1008.4
2018-08-09T07:54:35.212Z,1008.4
2018-08-09T07:55:37.607Z,1008.4
2018-08-09T07:56:39.704Z,1008.4
2018-08-09T07:57:41.809Z,1008.4
2018-08-09T07:58:44.305Z,1008.4
2018-08-09T07:59:46.396Z,1008.4
2018-08-09T08:00:48.520Z,1008.4
2018-08-09T08:01:50.618Z,1008.4
2018-08-09T08:02:52.716Z,1008.4
2018-08-09T08:03:54.822Z,1008.4
2018-08-09T08:04:57.322Z,1008.5
2018-08-09T08:05:59.450Z,1008.5
2018-08-09T08:07:01.539Z,1008.5
2018-08-09T08:08:03.642Z,1008.5
2018-08-09T08:09:05.743Z,1008.5
2018-08-09T08:10:07.849Z,1008.6
2018-08-09T08:11:09.963Z,1008.5
2018-08-09T08:12:12.059Z,1008.6
2018-08-09T08:13:14.169Z,1008.5
2018-08-09T08:14:16.277Z,1008.5
2018-08-09T08:15:18.675Z,1008.5
2018-08-09T08:16:20.798Z,1008.5
2018-08-09T08:17:22.892Z,1008.5
2018-08-09T08:18:24.999Z,1008.5
2018-08-09T08:19:27.098Z,1008.5
2018-08-09T08:20:29.511Z,1008.6
2018-08-09T08:21:31.610Z,1008.6
2018-08-09T08:22:33.705Z,1008.6
2018-08-09T08:23:36.517Z,1008.6
2018-08-09T08:24:38.609Z,1008.6
2018-08-09T08:25:40.726Z,1008.6
2018-08-09T08:26:42.864Z,1008.5
2018-08-09T08:27:44.944Z,1008.5
2018-08-09T08:28:47.036Z,1008.5
2018-08-09T08:29:49.149Z,1008.5
2018-08-09T08:30:51.249Z,1008.5
2018-08-09T08:31:53.350Z,1008.5
2018-08-09T08:32:55.467Z,1008.5
2018-08-09T08:33:57.560Z,1008.5
2018-08-09T08:34:59.691Z,1008.5
2018-08-09T08:36:02.489Z,1008.4
2018-08-09T08:37:04.595Z,1008.5
2018-08-09T08:38:06.697Z,1008.5
2018-08-09T08:39:08.806Z,1008.4
2018-08-09T08:40:10.907Z,1008.4
2018-08-09T08:41:13.012Z,1008.4
2018-08-09T08:42:15.443Z,1008.4
2018-08-09T08:43:17.551Z,1008.4
2018-08-09T08:44:19.656Z,1008.5
2018-08-09T08:45:22.039Z,1008.4
2018-08-09T08:46:24.542Z,1008.5
2018-08-09T08:47:26.667Z,1008.4
2018-08-09T08:48:28.750Z,1008.4
2018-08-09T08:49:30.871Z,1008.4
2018-08-09T08:50:32.974Z,1008.4
2018-08-09T08:51:35.082Z,1008.4
2018-08-09T08:52:37.184Z,1008.4
2018-08-09T08:53:39.301Z,1008.3
2018-08-09T08:54:41.404Z,1008.4
2018-08-09T08:55:43.513Z,1008.4
2018-08-09T08:56:45.628Z,1008.3
2018-08-09T08:57:47.722Z,1008.4
2018-08-09T08:58:49.839Z,1008.3
2018-08-09T08:59:51.946Z,1008.3
2018-08-09T09:00:54.133Z,1008.3
2018-08-09T09:01:56.504Z,1008.3
2018-08-09T09:02:58.621Z,1008.3
2018-08-09T09:04:00.722Z,1008.3
2018-08-09T09:05:03.818Z,1008.3
2018-08-09T09:06:05.927Z,1008.3
2018-08-09T09:07:08.090Z,1008.3
2018-08-09T09:08:10.131Z,1008.3
2018-08-09T09:09:12.255Z,1008.3
2018-08-09T09:10:14.361Z,1008.3
2018-08-09T09:11:16.462Z,1008.2
2018-08-09T09:12:18.572Z,1008.1
2018-08-09T09:13:20.674Z,1008.1
2018-08-09T09:14:22.782Z,1008.1
2018-08-09T09:15:25.201Z,1008.1
2018-08-09T09:16:27.313Z,1008
2018-08-09T09:17:29.412Z,1008
2018-08-09T09:18:31.530Z,1008
2018-08-09T09:19:33.637Z,1008
2018-08-09T09:20:35.744Z,1008
2018-08-09T09:21:37.851Z,1008
2018-08-09T09:22:40.373Z,1008
2018-08-09T09:23:42.772Z,1008
2018-08-09T09:24:45.169Z,1008
2018-08-09T09:25:47.558Z,1008
2018-08-09T09:26:49.682Z,1008
2018-08-09T09:27:52.082Z,1008
2018-08-09T09:28:54.186Z,1008
2018-08-09T09:29:56.306Z,1008
2018-08-09T09:30:58.407Z,1008
2018-08-09T09:32:00.527Z,1007.9
2018-08-09T09:33:02.634Z,1008
2018-08-09T09:34:04.757Z,1007.9
2018-08-09T09:35:06.870Z,1008
2018-08-09T09:36:08.973Z,1008
2018-08-09T09:37:11.080Z,1008
2018-08-09T09:38:13.189Z,1007.9
2018-08-09T09:39:15.315Z,1007.9
2018-08-09T09:40:17.419Z,1007.9
2018-08-09T09:41:19.554Z,1007.9
2018-08-09T09:42:21.969Z,1007.9
2018-08-09T09:43:24.088Z,1007.9
2018-08-09T09:44:26.195Z,1007.9
2018-08-09T09:45:28.311Z,1007.9
2018-08-09T09:46:30.417Z,1007.9
2018-08-09T09:47:32.817Z,1008
2018-08-09T09:48:34.943Z,1007.9
2018-08-09T09:49:37.075Z,1008
2018-08-09T09:50:39.574Z,1008
2018-08-09T09:51:42.009Z,1008
2018-08-09T09:52:44.117Z,1008
2018-08-09T09:53:46.532Z,1007.9
2018-08-09T09:54:48.723Z,1007.9
2018-08-09T09:55:51.181Z,1007.9
2018-08-09T09:56:53.591Z,1007.9
2018-08-09T09:57:56.387Z,1007.9
2018-08-09T09:58:58.820Z,1007.9
2018-08-09T10:00:00.939Z,1008
2018-08-09T10:01:03.045Z,1008
2018-08-09T10:02:05.618Z,1008
2018-08-09T10:03:07.675Z,1007.9
2018-08-09T10:04:09.780Z,1007.9
2018-08-09T10:05:11.903Z,1007.9
2018-08-09T10:06:14.021Z,1007.9
2018-08-09T10:07:16.220Z,1007.9
2018-08-09T10:08:18.254Z,1007.8
2018-08-09T10:09:20.371Z,1007.9
2018-08-09T10:10:22.496Z,1007.8
2018-08-09T10:11:25.312Z,1007.8
2018-08-09T10:12:27.440Z,1007.8
2018-08-09T10:13:29.541Z,1007.8
2018-08-09T10:14:31.660Z,1007.7
2018-08-09T10:15:33.781Z,1007.8
2018-08-09T10:16:35.896Z,1007.7
2018-08-09T10:17:38.006Z,1007.7
2018-08-09T10:18:40.127Z,1007.7
2018-08-09T10:19:42.252Z,1007.6
2018-08-09T10:20:44.350Z,1007.6
2018-08-09T10:21:46.474Z,1007.6
2018-08-09T10:22:48.591Z,1007.5
2018-08-09T10:23:51.375Z,1007.5
2018-08-09T10:24:54.193Z,1007.6
2018-08-09T10:25:56.303Z,1007.5
2018-08-09T10:26:58.414Z,1007.5
2018-08-09T10:28:00.545Z,1007.5
2018-08-09T10:29:02.655Z,1007.4
2018-08-09T10:30:05.165Z,1007.5
2018-08-09T10:31:07.282Z,1007.4
2018-08-09T10:32:09.407Z,1007.4
2018-08-09T10:33:11.512Z,1007.4
2018-08-09T10:34:13.930Z,1007.4
2018-08-09T10:35:16.046Z,1007.4
2018-08-09T10:36:18.155Z,1007.3
2018-08-09T10:37:20.964Z,1007.3
2018-08-09T10:38:23.366Z,1007.3
2018-08-09T10:39:25.508Z,1007.3
2018-08-09T10:40:27.601Z,1007.3
2018-08-09T10:41:29.735Z,1007.3
2018-08-09T10:42:32.139Z,1007.3
2018-08-09T10:43:34.258Z,1007.3
2018-08-09T10:44:36.384Z,1007.2
2018-08-09T10:45:38.883Z,1007.2
2018-08-09T10:46:41.016Z,1007.2
2018-08-09T10:47:43.421Z,1007.1
2018-08-09T10:48:45.922Z,1007.1
2018-08-09T10:49:48.041Z,1007.1
2018-08-09T10:50:50.456Z,1007.1
2018-08-09T10:51:53.242Z,1007.1
2018-08-09T10:52:55.369Z,1007.1
2018-08-09T10:53:57.487Z,1007
2018-08-09T10:54:59.598Z,1007
2018-08-09T10:56:01.720Z,1007
2018-08-09T10:57:03.850Z,1007
2018-08-09T10:58:05.952Z,1007
2018-08-09T10:59:08.369Z,1006.9
2018-08-09T11:00:10.803Z,1006.9
2018-08-09T11:01:12.915Z,1006.9
2018-08-09T11:02:15.045Z,1006.8
2018-08-09T11:03:17.160Z,1006.8
2018-08-09T11:04:19.279Z,1006.8
2018-08-09T11:05:21.390Z,1006.8
2018-08-09T11:06:23.540Z,1006.7
2018-08-09T11:07:25.652Z,1006.7
2018-08-09T11:08:28.056Z,1006.7
2018-08-09T11:09:30.579Z,1006.7
2018-08-09T11:10:32.976Z,1006.6
2018-08-09T11:11:35.101Z,1006.6
2018-08-09T11:12:37.222Z,1006.6
2018-08-09T11:13:39.352Z,1006.6
2018-08-09T11:14:41.461Z,1006.6
2018-08-09T11:15:43.585Z,1006.7
2018-08-09T11:16:45.712Z,1006.7
2018-08-09T11:17:47.835Z,1006.7
2018-08-09T11:18:49.936Z,1006.6
2018-08-09T11:19:52.067Z,1006.7
2018-08-09T11:20:54.188Z,1006.7
2018-08-09T11:21:56.303Z,1006.6
2018-08-09T11:22:58.418Z,1006.6
2018-08-09T11:24:00.546Z,1006.6
2018-08-09T11:25:02.660Z,1006.5
2018-08-09T11:26:04.787Z,1006.5
2018-08-09T11:27:07.297Z,1006.6
2018-08-09T11:28:09.420Z,1006.5
2018-08-09T11:29:11.540Z,1006.5
2018-08-09T11:30:13.674Z,1006.5
2018-08-09T11:31:16.075Z,1006.5
2018-08-09T11:32:18.513Z,1006.6
2018-08-09T11:33:20.637Z,1006.5
2018-08-09T11:34:22.750Z,1006.5
2018-08-09T11:35:24.882Z,1006.5
2018-08-09T11:36:26.996Z,1006.4
2018-08-09T11:37:29.110Z,1006.4
2018-08-09T11:38:31.219Z,1006.4
2018-08-09T11:39:33.641Z,1006.4
2018-08-09T11:40:35.758Z,1006.4
2018-08-09T11:41:37.900Z,1006.4
2018-08-09T11:42:40.028Z,1006.3
2018-08-09T11:43:42.135Z,1006.4
2018-08-09T11:44:44.275Z,1006.3
2018-08-09T11:45:46.396Z,1006.3
2018-08-09T11:46:48.526Z,1006.3
2018-08-09T11:47:51.023Z,1006.3
2018-08-09T11:48:53.164Z,1006.3
2018-08-09T11:49:55.297Z,1006.3
2018-08-09T11:50:57.408Z,1006.3
2018-08-09T11:51:59.540Z,1006.2
2018-08-09T11:53:01.650Z,1006.2
2018-08-09T11:54:03.799Z,1006.2
2018-08-09T11:55:05.920Z,1006.2
2018-08-09T11:56:08.096Z,1006.1
2018-08-09T11:57:10.207Z,1006.2
2018-08-09T11:58:12.827Z,1006.2
2018-08-09T11:59:14.951Z,1006.1
2018-08-09T12:00:17.077Z,1006.1
2018-08-09T12:01:19.477Z,1006
2018-08-09T12:02:21.604Z,1006
2018-08-09T12:03:23.780Z,1006
2018-08-09T12:04:26.287Z,1006
2018-08-09T12:05:28.654Z,1006
2018-08-09T12:06:31.095Z,1006
2018-08-09T12:07:33.226Z,1006
2018-08-09T12:08:36.040Z,1006
2018-08-09T12:09:38.484Z,1005.9
2018-08-09T12:10:40.596Z,1006
2018-08-09T12:11:42.709Z,1005.9
2018-08-09T12:12:44.831Z,1005.9
2018-08-09T12:13:47.250Z,1005.9
2018-08-09T12:14:49.661Z,1005.9
2018-08-09T12:15:52.094Z,1005.9
2018-08-09T12:16:54.199Z,1005.9
2018-08-09T12:17:56.327Z,1005.9
2018-08-09T12:18:58.449Z,1005.9
2018-08-09T12:20:00.859Z,1005.8
2018-08-09T12:21:03.026Z,1005.8
2018-08-09T12:22:05.107Z,1005.8
2018-08-09T12:23:07.215Z,1005.7
2018-08-09T12:24:09.337Z,1005.7
2018-08-09T12:25:11.782Z,1005.7
2018-08-09T12:26:14.187Z,1005.7
2018-08-09T12:27:16.305Z,1005.8
2018-08-09T12:28:18.435Z,1005.7
2018-08-09T12:29:20.558Z,1005.8
2018-08-09T12:30:22.720Z,1005.8
2018-08-09T12:31:24.807Z,1005.7
2018-08-09T12:32:26.928Z,1005.8
2018-08-09T12:33:29.435Z,1005.7
2018-08-09T12:34:31.832Z,1005.7
2018-08-09T12:35:33.953Z,1005.6
2018-08-09T12:36:36.128Z,1005.7
2018-08-09T12:37:38.185Z,1005.7
2018-08-09T12:38:40.309Z,1005.7
2018-08-09T12:39:42.433Z,1005.7
2018-08-09T12:40:44.547Z,1005.7
2018-08-09T12:41:46.974Z,1005.7
2018-08-09T12:42:49.403Z,1005.7
2018-08-09T12:43:51.518Z,1005.7
2018-08-09T12:44:53.635Z,1005.6
2018-08-09T12:45:55.761Z,1005.6
2018-08-09T12:46:57.877Z,1005.6
2018-08-09T12:47:59.994Z,1005.6
2018-08-09T12:49:02.436Z,1005.6
2018-08-09T12:50:04.828Z,1005.6
2018-08-09T12:51:07.343Z,1005.5
2018-08-09T12:52:09.748Z,1005.5
2018-08-09T12:53:11.880Z,1005.4
2018-08-09T12:54:13.983Z,1005.5
2018-08-09T12:55:16.113Z,1005.5
2018-08-09T12:56:18.509Z,1005.4
2018-08-09T12:57:20.617Z,1005.4
2018-08-09T12:58:22.743Z,1005.3
2018-08-09T12:59:24.889Z,1005.3
2018-08-09T13:00:26.967Z,1005.3
2018-08-09T13:01:29.096Z,1005.2